Time;durP1;ratioP1;P1;durP2;ratioP2;P2;SDS_P1;SDS_P2;PMS_P1;PMS_P2;Temp;Humidity;BMP_temperature;BMP_pressure;BME280_temperature;BME280_humidity;BME280_pressure;Samples;Min_cycle;Max_cycle;Signal;HPM_P1;HPM_P2
2023/08/24 00:01:30;;;;;;;;;;;;;;;21.74;61.02;101396.88;3970405;29;20024;-66
2023/08/24 00:03:32;;;;;;;;;;;;;;;21.71;61.10;101394.63;3970425;29;20444;-67
2023/08/24 00:05:36;;;;;;;;;;;;;;;21.69;61.16;101399.50;3968027;29;20032;-66
2023/08/24 00:07:38;;;;;;;;;;;;;;;21.68;61.31;101395.91;3970506;29;20634;-66
2023/08/24 00:09:40;;;;;;;;;;;;;;;21.68;61.08;101400.59;3971081;29;20033;-66
2023/08/24 00:11:42;;;;;;;;;;;;;;;21.66;61.07;101394.47;3969802;29;20028;-66
2023/08/24 00:13:48;;;;;;;;;;;;;;;21.65;61.36;101399.13;3970121;29;20024;-66
2023/08/24 00:15:50;;;;;;;;;;;;;;;21.63;61.27;101390.28;3970093;29;20020;-66
2023/08/24 00:17:54;;;;;;;;;;;;;;;21.62;61.45;101393.28;3970203;29;20032;-66
2023/08/24 00:19:56;;;;;;;;;;;;;;;21.60;61.29;101393.50;3969726;29;20021;-66
2023/08/24 00:21:58;;;;;;;;;;;;;;;21.59;61.66;101400.06;3970268;29;20024;-66
2023/08/24 00:24:00;;;;;;;;;;;;;;;21.53;61.87;101388.09;3970310;29;19971;-66
2023/08/24 00:26:02;;;;;;;;;;;;;;;21.48;61.82;101387.09;3970332;29;20032;-66
2023/08/24 00:28:05;;;;;;;;;;;;;;;21.45;61.83;101390.31;3969215;29;20033;-66
2023/08/24 00:30:07;;;;;;;;;;;;;;;21.42;61.80;101386.94;3969811;29;20027;-65
2023/08/24 00:32:09;;;;;;;;;;;;;;;21.36;62.03;101378.81;3969919;29;20020;-66
2023/08/24 00:34:12;;;;;;;;;;;;;;;21.34;61.98;101375.47;3971651;29;20037;-66
2023/08/24 00:36:15;;;;;;;;;;;;;;;21.33;62.16;101380.13;3959131;29;20017;-65
2023/08/24 00:38:17;;;;;;;;;;;;;;;21.32;62.18;101388.59;3970014;29;20601;-66
2023/08/24 00:40:19;;;;;;;;;;;;;;;21.30;62.17;101385.25;3959308;29;20101;-66
2023/08/24 00:42:22;;;;;;;;;;;;;;;21.26;62.13;101389.53;3968222;29;20031;-66
2023/08/24 00:44:24;;;;;;;;;;;;;;;21.22;62.28;101387.25;3969444;29;19937;-66
2023/08/24 00:46:27;;;;;;;;;;;;;;;21.21;62.38;101382.00;3969567;29;20028;-66
2023/08/24 00:48:29;;;;;;;;;;;;;;;21.20;62.38;101388.53;3968663;29;20016;-66
2023/08/24 00:50:33;;;;;;;;;;;;;;;21.18;62.39;101387.94;3969599;29;20032;-65
2023/08/24 00:52:35;;;;;;;;;;;;;;;21.17;62.58;101387.09;3959594;29;20025;-66
2023/08/24 00:54:37;;;;;;;;;;;;;;;21.16;62.46;101385.44;3967595;29;20028;-66
2023/08/24 00:56:40;;;;;;;;;;;;;;;21.16;62.61;101384.56;3959583;29;20032;-66
2023/08/24 00:58:42;;;;;;;;;;;;;;;21.14;62.44;101387.56;3969699;29;20024;-66
2023/08/24 01:00:44;;;;;;;;;;;;;;;21.13;62.59;101390.53;3969612;29;20024;-67
2023/08/24 01:02:47;;;;;;;;;;;;;;;21.12;62.64;101391.63;3982399;29;20012;-66
2023/08/24 01:04:50;;;;;;;;;;;;;;;21.10;62.64;101397.34;3970764;29;19972;-66
2023/08/24 01:06:53;;;;;;;;;;;;;;;21.07;62.56;101381.34;3970260;29;20032;-66
2023/08/24 01:08:55;;;;;;;;;;;;;;;21.04;62.58;101390.03;3954024;29;20028;-66
2023/08/24 01:10:58;;;;;;;;;;;;;;;20.98;62.65;101389.03;3974209;29;20402;-66
2023/08/24 01:13:02;;;;;;;;;;;;;;;20.94;62.86;101389.72;3969571;29;20028;-66
2023/08/24 01:15:05;;;;;;;;;;;;;;;20.92;62.98;101391.88;3969420;29;20369;-65
2023/08/24 01:17:07;;;;;;;;;;;;;;;20.87;62.94;101379.66;3968781;29;20027;-66
2023/08/24 01:19:11;;;;;;;;;;;;;;;20.87;63.04;101387.06;3989269;29;20019;-66
2023/08/24 01:21:14;;;;;;;;;;;;;;;20.86;62.93;101383.50;3969077;29;20036;-66
2023/08/24 01:23:22;;;;;;;;;;;;;;;20.85;63.15;101380.97;3969595;29;20044;-66
2023/08/24 01:25:25;;;;;;;;;;;;;;;20.84;63.06;101380.13;3969419;29;20464;-67
2023/08/24 01:27:29;;;;;;;;;;;;;;;20.83;63.14;101381.22;3959768;29;20029;-66
2023/08/24 01:29:30;;;;;;;;;;;;;;;20.82;63.09;101384.19;3969141;29;20408;-67
2023/08/24 01:31:33;;;;;;;;;;;;;;;20.80;63.00;101384.41;3968742;29;20023;-67
2023/08/24 01:33:35;;;;;;;;;;;;;;;20.78;63.22;101382.97;3973758;29;20016;-67
2023/08/24 01:35:36;;;;;;;;;;;;;;;20.77;63.23;101384.88;3968719;29;20040;-66
2023/08/24 01:37:38;;;;;;;;;;;;;;;20.76;63.14;101376.88;3968568;29;20352;-67
2023/08/24 01:39:43;;;;;;;;;;;;;;;20.75;63.25;101384.25;3969210;29;20020;-65
2023/08/24 01:41:44;;;;;;;;;;;;;;;20.71;63.30;101385.78;3966604;29;20024;-68
2023/08/24 01:43:50;;;;;;;;;;;;;;;20.69;63.41;101388.75;3969681;29;20019;-66
2023/08/24 01:45:52;;;;;;;;;;;;;;;20.66;63.46;101386.47;3953745;29;19934;-66
2023/08/24 01:47:55;;;;;;;;;;;;;;;20.65;63.34;101389.44;3968760;29;20032;-67
2023/08/24 01:49:57;;;;;;;;;;;;;;;20.63;63.56;101377.84;3968524;29;20024;-66
2023/08/24 01:51:59;;;;;;;;;;;;;;;20.62;63.53;101382.47;3973285;29;20024;-67
2023/08/24 01:54:01;;;;;;;;;;;;;;;20.59;63.40;101382.91;3951774;29;20025;-67
2023/08/24 01:56:08;;;;;;;;;;;;;;;20.57;63.45;101382.31;3968489;29;20060;-66
2023/08/24 01:58:09;;;;;;;;;;;;;;;20.55;63.66;101378.13;3973816;29;20480;-66
2023/08/24 02:00:13;;;;;;;;;;;;;;;20.51;63.64;101378.56;3970134;29;20036;-66
2023/08/24 02:02:21;;;;;;;;;;;;;;;20.47;63.83;101371.88;3957884;29;20033;-65
2023/08/24 02:04:26;;;;;;;;;;;;;;;20.46;64.11;101366.63;3957890;29;20020;-67
2023/08/24 02:06:30;;;;;;;;;;;;;;;20.44;64.19;101366.84;3968029;29;19933;-66
2023/08/24 02:08:32;;;;;;;;;;;;;;;20.45;64.19;101365.75;3968958;29;20174;-66
2023/08/24 02:10:34;;;;;;;;;;;;;;;20.44;64.24;101360.50;3973503;29;20028;-66
2023/08/24 02:12:35;;;;;;;;;;;;;;;20.44;64.30;101363.25;3966244;29;20105;-66
2023/08/24 02:14:38;;;;;;;;;;;;;;;20.41;64.37;101366.47;3966396;29;20040;-66
2023/08/24 02:16:42;;;;;;;;;;;;;;;20.35;64.67;101369.03;3968096;29;20636;-67
2023/08/24 02:18:45;;;;;;;;;;;;;;;20.31;64.72;101372.47;3952231;29;20020;-66
2023/08/24 02:20:47;;;;;;;;;;;;;;;20.30;64.71;101376.28;3958243;29;20028;-67
2023/08/24 02:22:49;;;;;;;;;;;;;;;20.30;64.59;101373.53;3958684;29;20392;-67
2023/08/24 02:24:51;;;;;;;;;;;;;;;20.29;64.59;101374.59;3966467;29;20020;-66
2023/08/24 02:26:55;;;;;;;;;;;;;;;20.29;64.71;101375.44;3957208;29;20373;-67
2023/08/24 02:28:58;;;;;;;;;;;;;;;20.28;64.76;101371.03;3965487;29;20024;-66
2023/08/24 02:31:03;;;;;;;;;;;;;;;20.26;64.90;101375.88;3968226;29;20029;-66
2023/08/24 02:33:07;;;;;;;;;;;;;;;20.22;64.91;101379.28;3967094;29;20025;-65
2023/08/24 02:35:11;;;;;;;;;;;;;;;20.21;65.11;101377.63;3968815;29;20359;-65
2023/08/24 02:37:14;;;;;;;;;;;;;;;20.19;65.20;101379.75;3968162;29;20019;-66
2023/08/24 02:39:20;;;;;;;;;;;;;;;20.16;65.29;101376.41;3969073;29;19937;-66
2023/08/24 02:41:22;;;;;;;;;;;;;;;20.16;65.19;101372.84;3966364;29;20020;-66
2023/08/24 02:43:24;;;;;;;;;;;;;;;20.14;65.26;101369.44;3969652;29;20361;-66
2023/08/24 02:45:26;;;;;;;;;;;;;;;20.13;65.19;101374.09;3967878;29;20024;-66
2023/08/24 02:47:29;;;;;;;;;;;;;;;20.14;65.43;101364.81;3958266;29;20340;-65
2023/08/24 02:49:32;;;;;;;;;;;;;;;20.16;65.41;101372.84;3966653;29;20386;-67
2023/08/24 02:51:34;;;;;;;;;;;;;;;20.19;65.43;101368.78;3958592;30;20388;-66
2023/08/24 02:53:40;;;;;;;;;;;;;;;20.18;65.23;101356.97;3967751;29;20036;-66
2023/08/24 02:55:42;;;;;;;;;;;;;;;20.19;65.22;101366.91;3968576;29;20025;-66
2023/08/24 02:57:44;;;;;;;;;;;;;;;20.20;65.29;101362.25;3967361;29;20017;-66
2023/08/24 02:59:46;;;;;;;;;;;;;;;20.17;65.36;101358.91;3959727;29;20029;-66
2023/08/24 03:01:48;;;;;;;;;;;;;;;20.18;65.61;101362.47;3961229;29;20020;-66
2023/08/24 03:03:51;;;;;;;;;;;;;;;20.18;65.33;101362.47;3970843;29;20023;-66
2023/08/24 03:06:01;;;;;;;;;;;;;;;20.17;65.19;101367.13;3960305;29;20036;-66
2023/08/24 03:08:04;;;;;;;;;;;;;;;20.17;65.49;101369.00;3971010;29;19939;-66
2023/08/24 03:10:07;;;;;;;;;;;;;;;20.16;65.46;101362.69;3971164;29;20020;-67
2023/08/24 03:12:09;;;;;;;;;;;;;;;20.16;65.54;101365.44;3971193;29;20016;-67
2023/08/24 03:14:11;;;;;;;;;;;;;;;20.14;65.50;101372.19;3970442;29;20033;-66
2023/08/24 03:16:13;;;;;;;;;;;;;;;20.13;65.58;101368.63;3970788;29;20506;-65
2023/08/24 03:18:15;;;;;;;;;;;;;;;20.13;65.58;101370.53;3967572;29;20024;-66
2023/08/24 03:20:17;;;;;;;;;;;;;;;20.11;65.48;101367.16;3970868;29;20035;-66
2023/08/24 03:22:19;;;;;;;;;;;;;;;20.07;65.89;101366.78;3975415;29;20032;-66
2023/08/24 03:24:21;;;;;;;;;;;;;;;20.06;65.75;101364.25;3970872;29;20015;-66
2023/08/24 03:26:23;;;;;;;;;;;;;;;20.04;66.16;101366.41;3968757;29;20025;-66
2023/08/24 03:28:25;;;;;;;;;;;;;;;20.03;65.87;101357.34;3970390;29;20036;-66
2023/08/24 03:30:27;;;;;;;;;;;;;;;20.05;65.76;101357.94;3969932;29;20436;-66
2023/08/24 03:32:29;;;;;;;;;;;;;;;20.07;65.75;101358.56;3970144;29;20035;-66
2023/08/24 03:34:31;;;;;;;;;;;;;;;20.08;65.71;101359.41;3975972;29;20488;-66
2023/08/24 03:36:33;;;;;;;;;;;;;;;20.09;65.77;101358.34;3975165;29;20024;-66
2023/08/24 03:38:37;;;;;;;;;;;;;;;20.09;65.71;101358.34;3969563;29;20473;-66
2023/08/24 03:40:40;;;;;;;;;;;;;;;20.09;65.62;101361.91;3954763;29;20056;-66
2023/08/24 03:42:42;;;;;;;;;;;;;;;20.10;65.68;101357.28;3971156;29;20027;-66
2023/08/24 03:44:44;;;;;;;;;;;;;;;20.11;65.77;101348.81;3969022;29;20407;-66
2023/08/24 03:46:46;;;;;;;;;;;;;;;20.13;65.66;101348.59;3968896;29;20373;-67
2023/08/24 03:48:48;;;;;;;;;;;;;;;20.14;65.59;101350.25;3968038;29;19975;-66
2023/08/24 03:50:49;;;;;;;;;;;;;;;20.12;65.75;101346.91;3968307;29;20028;-66
2023/08/24 03:52:51;;;;;;;;;;;;;;;20.10;65.72;101352.63;3970322;29;20386;-66
2023/08/24 03:54:55;;;;;;;;;;;;;;;20.07;65.58;101349.50;3960126;29;20021;-66
2023/08/24 03:56:56;;;;;;;;;;;;;;;20.07;65.80;101344.84;3960603;29;20028;-66
2023/08/24 03:58:58;;;;;;;;;;;;;;;20.09;65.77;101342.72;3970455;29;19929;-66
2023/08/24 04:01:00;;;;;;;;;;;;;;;20.11;65.66;101339.75;3969893;29;20038;-66
2023/08/24 04:03:02;;;;;;;;;;;;;;;20.12;65.68;101342.25;3969968;29;20793;-66
2023/08/24 04:05:04;;;;;;;;;;;;;;;20.13;65.39;101340.38;3975293;29;20027;-66
2023/08/24 04:07:06;;;;;;;;;;;;;;;20.14;65.48;101334.66;3968964;29;20369;-66
2023/08/24 04:09:10;;;;;;;;;;;;;;;20.13;65.48;101346.69;3971100;29;20023;-66
2023/08/24 04:11:13;;;;;;;;;;;;;;;20.13;65.42;101343.13;3967151;29;20473;-67
2023/08/24 04:13:16;;;;;;;;;;;;;;;20.09;65.44;101342.72;3959287;29;20027;-66
2023/08/24 04:15:19;;;;;;;;;;;;;;;20.11;65.51;101340.59;3960130;29;20400;-66
2023/08/24 04:17:21;;;;;;;;;;;;;;;20.11;65.51;101343.34;3969915;29;20040;-66
2023/08/24 04:19:23;;;;;;;;;;;;;;;20.13;65.67;101343.13;3969102;29;20686;-66
2023/08/24 04:21:24;;;;;;;;;;;;;;;20.12;65.67;101341.44;3969920;29;19972;-66
2023/08/24 04:23:26;;;;;;;;;;;;;;;20.11;65.59;101340.59;3970285;29;19937;-65
2023/08/24 04:25:29;;;;;;;;;;;;;;;20.12;65.58;101341.44;3969498;29;20385;-66
2023/08/24 04:27:33;;;;;;;;;;;;;;;20.12;65.77;101347.75;3970005;29;20020;-66
2023/08/24 04:29:35;;;;;;;;;;;;;;;20.11;65.58;101343.34;3969563;29;19972;-66
2023/08/24 04:31:37;;;;;;;;;;;;;;;20.12;65.85;101347.75;3969056;29;20028;-66
2023/08/24 04:33:39;;;;;;;;;;;;;;;20.12;65.82;101347.75;3970797;29;20020;-66
2023/08/24 04:35:41;;;;;;;;;;;;;;;20.12;65.82;101342.25;3969845;29;20019;-66
2023/08/24 04:37:43;;;;;;;;;;;;;;;20.10;65.89;101341.66;3969659;29;20025;-65
2023/08/24 04:39:45;;;;;;;;;;;;;;;20.10;65.93;101340.81;3969673;29;20048;-66
2023/08/24 04:41:47;;;;;;;;;;;;;;;20.10;65.95;101349.88;3969612;29;20521;-66
2023/08/24 04:43:50;;;;;;;;;;;;;;;20.09;66.15;101342.72;3971269;29;20020;-66
2023/08/24 04:45:53;;;;;;;;;;;;;;;20.06;66.23;101345.94;3970376;29;20036;-66
2023/08/24 04:47:55;;;;;;;;;;;;;;;20.05;66.05;101341.50;3969272;29;20016;-65
2023/08/24 04:49:57;;;;;;;;;;;;;;;20.06;65.88;101348.66;3969558;29;20435;-66
2023/08/24 04:51:59;;;;;;;;;;;;;;;20.07;66.01;101339.38;3969356;29;20016;-66
2023/08/24 04:54:02;;;;;;;;;;;;;;;20.09;66.05;101334.47;3970517;29;20028;-66
2023/08/24 04:56:04;;;;;;;;;;;;;;;20.11;65.86;101345.22;3969468;29;20028;-66
2023/08/24 04:58:06;;;;;;;;;;;;;;;20.12;65.74;101342.25;3970547;29;20028;-66
2023/08/24 05:00:15;;;;;;;;;;;;;;;20.14;65.83;101353.00;3969780;29;20032;-66
2023/08/24 05:02:17;;;;;;;;;;;;;;;20.15;65.76;101346.47;3969504;29;20012;-66
2023/08/24 05:04:19;;;;;;;;;;;;;;;20.15;65.64;101352.78;3969573;29;20021;-66
2023/08/24 05:06:21;;;;;;;;;;;;;;;20.15;65.64;101358.25;3969217;29;20035;-66
2023/08/24 05:08:23;;;;;;;;;;;;;;;20.15;65.80;101358.25;3969318;29;20012;-65
2023/08/24 05:10:25;;;;;;;;;;;;;;;20.14;65.69;101356.59;3970243;29;20013;-66
2023/08/24 05:12:27;;;;;;;;;;;;;;;20.14;65.75;101363.97;3968883;29;20383;-66
2023/08/24 05:14:32;;;;;;;;;;;;;;;20.15;65.93;101352.78;3969876;29;20029;-65
2023/08/24 05:16:35;;;;;;;;;;;;;;;20.16;65.69;101354.47;3969996;29;20430;-66
2023/08/24 05:18:37;;;;;;;;;;;;;;;20.17;65.68;101355.28;3968463;29;20041;-66
2023/08/24 05:20:39;;;;;;;;;;;;;;;20.19;65.74;101353.19;3969482;29;20444;-66
2023/08/24 05:22:41;;;;;;;;;;;;;;;20.18;65.79;101356.97;3969402;29;20016;-66
2023/08/24 05:24:43;;;;;;;;;;;;;;;20.20;65.75;101357.59;3969039;29;20021;-66
2023/08/24 05:26:45;;;;;;;;;;;;;;;20.20;65.88;101357.59;3969663;29;20058;-66
2023/08/24 05:28:48;;;;;;;;;;;;;;;20.19;65.95;101361.41;3970536;29;20029;-66
2023/08/24 05:30:51;;;;;;;;;;;;;;;20.20;65.57;101364.97;3970237;29;20643;-66
2023/08/24 05:32:55;;;;;;;;;;;;;;;20.22;65.68;101354.63;3970998;29;20024;-66
2023/08/24 05:34:56;;;;;;;;;;;;;;;20.25;65.89;101362.38;3970457;29;20020;-66
2023/08/24 05:36:58;;;;;;;;;;;;;;;20.29;65.91;101358.13;3970133;29;20308;-66
2023/08/24 05:39:00;;;;;;;;;;;;;;;20.32;65.64;101358.50;3969301;29;20016;-66
2023/08/24 05:41:02;;;;;;;;;;;;;;;20.35;65.55;101358.06;3970529;29;20453;-66
2023/08/24 05:43:04;;;;;;;;;;;;;;;20.38;65.48;101358.69;3971352;29;20371;-66
2023/08/24 05:45:08;;;;;;;;;;;;;;;20.39;65.44;101360.34;3971246;29;20036;-66
2023/08/24 05:47:10;;;;;;;;;;;;;;;20.40;65.47;101359.28;3970021;29;20031;-66
2023/08/24 05:49:13;;;;;;;;;;;;;;;20.40;65.44;101362.88;3969353;29;20020;-66
2023/08/24 05:51:15;;;;;;;;;;;;;;;20.40;65.41;101362.88;3969865;29;20412;-66
2023/08/24 05:53:17;;;;;;;;;;;;;;;20.41;65.54;101363.72;3970821;29;20129;-67
2023/08/24 05:55:19;;;;;;;;;;;;;;;20.42;65.57;101366.22;3971412;29;20020;-67
2023/08/24 05:57:21;;;;;;;;;;;;;;;20.44;65.66;101361.34;3970251;29;20027;-66
2023/08/24 05:59:23;;;;;;;;;;;;;;;20.46;65.42;101358.38;3969316;29;20028;-66
2023/08/24 06:01:26;;;;;;;;;;;;;;;20.46;65.56;101358.38;3970592;29;20357;-66
2023/08/24 06:03:28;;;;;;;;;;;;;;;20.47;65.20;101358.16;3969758;29;20036;-66
2023/08/24 06:05:32;;;;;;;;;;;;;;;20.48;65.58;101359.81;3970659;29;20028;-66
2023/08/24 06:07:32;;;;;;;;;;;;;;;20.51;65.64;101361.28;3970038;29;20028;-68
2023/08/24 06:09:34;;;;;;;;;;;;;;;20.52;65.76;101347.31;3968758;29;20028;-67
2023/08/24 06:11:36;;;;;;;;;;;;;;;20.52;65.74;101354.72;3968416;29;20028;-67
2023/08/24 06:13:39;;;;;;;;;;;;;;;20.49;65.54;101345.03;3968064;29;20032;-67
2023/08/24 06:15:39;;;;;;;;;;;;;;;20.48;65.61;101346.09;3968791;29;20377;-66
2023/08/24 06:17:42;;;;;;;;;;;;;;;20.50;65.44;101356.84;3968862;29;19980;-66
2023/08/24 06:19:44;;;;;;;;;;;;;;;20.51;65.41;101353.88;3966727;29;20016;-66
2023/08/24 06:21:47;;;;;;;;;;;;;;;20.53;65.35;101353.66;3964767;29;20031;-67
2023/08/24 06:23:49;;;;;;;;;;;;;;;20.57;65.55;101356.78;3965426;29;20032;-66
2023/08/24 06:25:52;;;;;;;;;;;;;;;20.59;65.52;101349.16;3968378;29;20024;-66
2023/08/24 06:27:53;;;;;;;;;;;;;;;20.60;65.67;101359.09;3967866;29;20021;-66
2023/08/24 06:29:55;;;;;;;;;;;;;;;20.60;65.48;101350.84;3967334;29;20024;-66
2023/08/24 06:31:57;;;;;;;;;;;;;;;20.61;65.42;101347.88;3967645;29;20495;-66
2023/08/24 06:34:00;;;;;;;;;;;;;;;20.67;65.29;101354.38;3967803;29;20028;-66
2023/08/24 06:36:02;;;;;;;;;;;;;;;20.70;65.32;101351.16;3967164;29;20020;-66
2023/08/24 06:38:05;;;;;;;;;;;;;;;20.73;65.31;101349.88;3968562;29;20024;-66
2023/08/24 06:40:08;;;;;;;;;;;;;;;20.75;65.08;101348.56;3969634;29;20125;-66
2023/08/24 06:42:10;;;;;;;;;;;;;;;20.79;65.03;101352.53;3967460;29;20028;-67
2023/08/24 06:44:12;;;;;;;;;;;;;;;20.84;65.05;101354.59;3967157;29;20017;-66
2023/08/24 06:46:14;;;;;;;;;;;;;;;20.85;64.99;101356.28;3967431;29;20022;-66
2023/08/24 06:48:17;;;;;;;;;;;;;;;20.87;64.73;101354.94;3967288;29;20035;-66
2023/08/24 06:50:20;;;;;;;;;;;;;;;20.90;64.55;101356.41;3967451;29;20024;-66
2023/08/24 06:52:22;;;;;;;;;;;;;;;20.94;64.47;101359.53;3957723;30;20476;-66
2023/08/24 06:54:27;;;;;;;;;;;;;;;20.96;64.31;101354.66;3967336;29;20028;-66
2023/08/24 06:56:29;;;;;;;;;;;;;;;20.99;64.04;101359.69;3973041;29;20352;-66
2023/08/24 06:58:30;;;;;;;;;;;;;;;21.00;64.27;101358.59;3967704;29;20016;-66
2023/08/24 07:00:33;;;;;;;;;;;;;;;21.03;64.13;101363.63;3968328;29;19933;-67
2023/08/24 07:02:35;;;;;;;;;;;;;;;21.05;63.73;101364.25;3967419;29;20020;-67
2023/08/24 07:04:39;;;;;;;;;;;;;;;21.08;63.67;101357.44;3967891;29;20477;-67
2023/08/24 07:06:43;;;;;;;;;;;;;;;21.12;63.53;101361.41;3968097;29;20040;-67
2023/08/24 07:08:45;;;;;;;;;;;;;;;21.14;63.52;101365.59;3968111;29;20040;-67
2023/08/24 07:10:49;;;;;;;;;;;;;;;21.18;63.67;101365.97;3967208;29;20024;-67
2023/08/24 07:12:51;;;;;;;;;;;;;;;21.23;63.42;101371.59;3967600;29;19937;-66
2023/08/24 07:14:52;;;;;;;;;;;;;;;21.28;63.55;101376.41;3972978;29;20023;-67
2023/08/24 07:16:53;;;;;;;;;;;;;;;21.31;63.21;101365.78;3967664;29;20033;-67
2023/08/24 07:18:56;;;;;;;;;;;;;;;21.35;63.13;101366.16;3967769;29;20646;-66
2023/08/24 07:20:58;;;;;;;;;;;;;;;21.37;62.90;101373.09;3967643;29;20370;-67
2023/08/24 07:23:00;;;;;;;;;;;;;;;21.43;62.76;101374.06;3967259;29;20016;-66
2023/08/24 07:25:04;;;;;;;;;;;;;;;21.47;62.59;101377.19;3967130;29;20023;-66
2023/08/24 07:27:08;;;;;;;;;;;;;;;21.51;62.60;101376.50;3966848;29;20024;-67
2023/08/24 07:29:10;;;;;;;;;;;;;;;21.55;62.54;101360.38;3957914;29;19957;-68
2023/08/24 07:31:12;;;;;;;;;;;;;;;21.59;62.73;101367.09;3966954;29;20016;-66
2023/08/24 07:33:15;;;;;;;;;;;;;;;21.62;62.37;101355.63;3967278;29;20408;-66
2023/08/24 07:35:17;;;;;;;;;;;;;;;21.65;62.52;101357.06;3968034;29;20073;-66
2023/08/24 07:37:19;;;;;;;;;;;;;;;21.69;62.55;101355.50;3967120;29;20020;-66
2023/08/24 07:39:21;;;;;;;;;;;;;;;21.72;62.46;101350.41;3968245;29;20350;-66
2023/08/24 07:41:23;;;;;;;;;;;;;;;21.76;62.44;101359.81;3966936;29;20028;-66
2023/08/24 07:43:26;;;;;;;;;;;;;;;21.77;62.12;101355.16;3966923;29;20025;-66
2023/08/24 07:45:28;;;;;;;;;;;;;;;21.84;62.06;101355.06;3968500;29;20032;-66
2023/08/24 07:47:30;;;;;;;;;;;;;;;21.86;61.77;101353.72;3972200;29;20032;-66
2023/08/24 07:49:33;;;;;;;;;;;;;;;21.90;62.00;101363.19;3970332;29;20036;-66
2023/08/24 07:51:35;;;;;;;;;;;;;;;21.93;61.55;101362.72;3969941;29;20832;-66
2023/08/24 07:53:37;;;;;;;;;;;;;;;21.97;61.44;101365.81;3970602;29;19933;-66
2023/08/24 07:55:39;;;;;;;;;;;;;;;22.01;61.17;101352.44;3969478;29;20437;-67
2023/08/24 07:57:40;;;;;;;;;;;;;;;22.04;61.46;101351.97;3967602;29;19968;-66
2023/08/24 07:59:44;;;;;;;;;;;;;;;22.07;61.21;101355.06;3969634;29;19957;-66
2023/08/24 08:01:46;;;;;;;;;;;;;;;22.11;61.28;101348.00;3969842;29;20024;-66
2023/08/24 08:03:48;;;;;;;;;;;;;;;22.13;61.19;101343.13;3969346;29;20024;-65
2023/08/24 08:05:50;;;;;;;;;;;;;;;22.18;61.01;101349.78;3970319;29;20885;-66
2023/08/24 08:07:52;;;;;;;;;;;;;;;22.20;60.80;101348.50;3969529;29;20028;-66
2023/08/24 08:09:54;;;;;;;;;;;;;;;22.24;60.93;101344.19;3969719;29;20379;-66
2023/08/24 08:11:56;;;;;;;;;;;;;;;22.27;60.72;101340.09;3969381;29;20393;-66
2023/08/24 08:13:58;;;;;;;;;;;;;;;22.32;60.72;101345.78;3970657;29;19980;-66
2023/08/24 08:16:04;;;;;;;;;;;;;;;22.36;60.34;101348.88;3970179;29;20020;-66
2023/08/24 08:18:06;;;;;;;;;;;;;;;22.41;60.22;101354.47;3969069;29;20024;-65
2023/08/24 08:20:08;;;;;;;;;;;;;;;22.44;60.05;101359.50;3959202;29;20008;-66
2023/08/24 08:22:13;;;;;;;;;;;;;;;22.47;60.02;101362.59;3968875;29;20452;-65
2023/08/24 08:24:15;;;;;;;;;;;;;;;22.50;59.79;101356.63;3969307;29;20015;-66
2023/08/24 08:26:17;;;;;;;;;;;;;;;22.55;59.65;101353.13;3969577;29;20043;-65
2023/08/24 08:28:19;;;;;;;;;;;;;;;22.59;59.49;101350.75;3969438;29;20032;-66
2023/08/24 08:30:21;;;;;;;;;;;;;;;22.62;59.29;101342.00;3969512;29;20020;-66
2023/08/24 08:32:26;;;;;;;;;;;;;;;22.66;59.38;101337.69;3969832;29;20464;-66
2023/08/24 08:34:28;;;;;;;;;;;;;;;22.68;59.11;101341.03;3970489;29;20478;-66
2023/08/24 08:36:32;;;;;;;;;;;;;;;22.71;59.04;101340.56;3969259;29;20012;-66
2023/08/24 08:38:34;;;;;;;;;;;;;;;22.76;58.96;101337.03;3971439;29;20048;-66
2023/08/24 08:40:37;;;;;;;;;;;;;;;22.78;58.63;101327.47;3970008;29;20033;-66
2023/08/24 08:42:39;;;;;;;;;;;;;;;22.81;58.45;101332.50;3969648;29;20028;-65
2023/08/24 08:44:42;;;;;;;;;;;;;;;22.85;58.21;101324.56;3969379;29;20052;-65
2023/08/24 08:46:44;;;;;;;;;;;;;;;22.87;58.07;101330.69;3969432;29;20008;-66
2023/08/24 08:48:47;;;;;;;;;;;;;;;22.90;58.22;101323.81;3969731;29;20047;-66
2023/08/24 08:50:49;;;;;;;;;;;;;;;22.91;58.02;101326.34;3968856;29;20046;-66
2023/08/24 08:52:51;;;;;;;;;;;;;;;22.92;57.63;101333.53;3969034;29;20597;-66
2023/08/24 08:54:53;;;;;;;;;;;;;;;22.95;57.50;101319.28;3969537;29;19930;-66
2023/08/24 08:56:55;;;;;;;;;;;;;;;22.97;57.33;101328.13;3969100;29;20008;-66
2023/08/24 08:58:57;;;;;;;;;;;;;;;22.99;57.45;101328.72;3968752;29;20028;-66
2023/08/24 09:01:02;;;;;;;;;;;;;;;23.00;57.50;101326.78;3969780;29;20024;-66
2023/08/24 09:03:04;;;;;;;;;;;;;;;23.02;57.30;101324.63;3969370;29;20024;-66
2023/08/24 09:05:08;;;;;;;;;;;;;;;23.02;57.24;101313.59;3968843;29;20016;-65
2023/08/24 09:07:12;;;;;;;;;;;;;;;23.04;57.33;101317.78;3969324;29;20032;-65
2023/08/24 09:09:14;;;;;;;;;;;;;;;23.07;57.40;101308.19;3968980;29;20349;-66
2023/08/24 09:11:17;;;;;;;;;;;;;;;23.09;57.32;101302.47;3969294;29;20024;-66
2023/08/24 09:13:18;;;;;;;;;;;;;;;23.11;57.01;101303.06;3968982;29;20028;-66
2023/08/24 09:15:27;;;;;;;;;;;;;;;23.11;57.00;101309.41;3968943;29;20005;-65
2023/08/24 09:17:29;;;;;;;;;;;;;;;23.12;56.92;101304.72;3968481;29;20028;-66
2023/08/24 09:19:32;;;;;;;;;;;;;;;23.13;56.94;101301.72;3968787;29;20024;-66
2023/08/24 09:21:38;;;;;;;;;;;;;;;23.15;56.92;101298.72;3968692;29;20054;-66
2023/08/24 09:23:44;;;;;;;;;;;;;;;23.16;56.73;101303.97;3969124;29;20725;-66
2023/08/24 09:25:45;;;;;;;;;;;;;;;23.16;56.88;101295.72;3969507;29;20016;-66
2023/08/24 09:27:47;;;;;;;;;;;;;;;23.18;56.98;101289.94;3968317;29;20024;-66
2023/08/24 09:29:50;;;;;;;;;;;;;;;23.19;56.65;101286.94;3968052;29;20016;-66
2023/08/24 09:31:52;;;;;;;;;;;;;;;23.20;56.59;101287.81;3968129;29;20023;-65
2023/08/24 09:34:00;;;;;;;;;;;;;;;23.21;56.81;101282.03;3968751;29;20040;-66
2023/08/24 09:36:04;;;;;;;;;;;;;;;23.23;56.76;101290.06;3968246;29;20025;-66
2023/08/24 09:38:21;;;;;;;;;;;;;;;23.24;56.46;101283.44;3968916;29;20028;-66
2023/08/24 09:40:26;;;;;;;;;;;;;;;23.26;56.77;101277.69;3969006;29;20016;-66
2023/08/24 09:42:28;;;;;;;;;;;;;;;23.27;56.54;101279.38;3967995;29;20017;-66
2023/08/24 09:44:30;;;;;;;;;;;;;;;23.27;56.72;101266.41;3968308;29;20052;-66
2023/08/24 09:46:32;;;;;;;;;;;;;;;23.29;56.55;101271.69;3966944;29;20024;-65
2023/08/24 09:48:34;;;;;;;;;;;;;;;23.29;56.37;101268.94;3968544;29;20020;-65
2023/08/24 09:50:36;;;;;;;;;;;;;;;23.30;56.40;101271.44;3968175;29;20032;-66
2023/08/24 09:52:38;;;;;;;;;;;;;;;23.32;56.49;101268.44;3968058;29;20016;-66
2023/08/24 09:54:40;;;;;;;;;;;;;;;23.32;56.36;101258.25;3968346;29;20027;-65
2023/08/24 09:56:44;;;;;;;;;;;;;;;23.34;56.34;101266.28;3968537;29;19930;-65
2023/08/24 09:58:46;;;;;;;;;;;;;;;23.34;56.20;101260.78;3967993;29;20015;-66
2023/08/24 10:00:48;;;;;;;;;;;;;;;23.36;56.33;101259.41;3967999;29;20052;-66
2023/08/24 10:02:51;;;;;;;;;;;;;;;23.37;56.15;101260.28;3968294;29;20016;-65
2023/08/24 10:04:53;;;;;;;;;;;;;;;23.40;56.13;101254.22;3968073;29;20036;-65
2023/08/24 10:06:56;;;;;;;;;;;;;;;23.42;56.10;101260.34;3968024;29;20040;-64
2023/08/24 10:09:00;;;;;;;;;;;;;;;23.43;56.19;101253.72;3968213;29;20028;-65
2023/08/24 10:11:02;;;;;;;;;;;;;;;23.44;56.23;101252.66;3958183;29;20020;-66
2023/08/24 10:13:08;;;;;;;;;;;;;;;23.47;56.00;101245.81;3968536;29;20021;-66
2023/08/24 10:15:11;;;;;;;;;;;;;;;23.49;56.19;101249.13;3958508;29;20020;-66
2023/08/24 10:17:14;;;;;;;;;;;;;;;23.49;55.96;101243.63;3958729;29;19982;-66
2023/08/24 10:19:16;;;;;;;;;;;;;;;23.50;55.85;101246.13;3967629;29;20020;-66
2023/08/24 10:21:17;;;;;;;;;;;;;;;23.53;55.89;101247.56;3969617;29;20448;-66
2023/08/24 10:23:20;;;;;;;;;;;;;;;23.53;55.52;101242.88;3968514;29;20463;-66
2023/08/24 10:25:24;;;;;;;;;;;;;;;23.56;55.62;101249.81;3967837;29;20052;-66
2023/08/24 10:27:26;;;;;;;;;;;;;;;23.57;55.67;101246.81;3967807;29;20012;-66
2023/08/24 10:29:30;;;;;;;;;;;;;;;23.58;55.31;101248.47;3967596;29;20020;-67